createdAt,value
2022-11-14T00:00:59.523Z,18.77
2022-11-14T00:03:26.693Z,18.95
2022-11-14T00:05:53.870Z,20.65
2022-11-14T00:08:22.975Z,19.65
2022-11-14T00:10:51.241Z,19.33
2022-11-14T00:13:19.437Z,19.80
2022-11-14T00:15:50.269Z,19.08
2022-11-14T00:18:17.800Z,19.42
2022-11-14T00:20:44.937Z,19.42
2022-11-14T00:23:12.108Z,18.63
2022-11-14T00:25:39.382Z,20.02
2022-11-14T00:28:06.544Z,18.40
2022-11-14T00:30:33.718Z,18.10
2022-11-14T00:33:00.949Z,18.52
2022-11-14T00:35:28.225Z,18.20
2022-11-14T00:37:55.368Z,17.52
2022-11-14T00:40:22.470Z,18.23
2022-11-14T00:42:49.744Z,17.10
2022-11-14T00:45:16.936Z,17.92
2022-11-14T00:47:44.093Z,18.20
2022-11-14T00:50:11.323Z,18.73
2022-11-14T00:52:38.440Z,18.00
2022-11-14T00:55:05.935Z,17.35
2022-11-14T00:57:33.058Z,17.63
2022-11-14T01:00:00.215Z,16.63
2022-11-14T01:02:27.357Z,17.17
2022-11-14T01:04:54.568Z,17.13
2022-11-14T01:07:21.730Z,17.63
2022-11-14T01:09:48.855Z,17.08
2022-11-14T01:12:16.014Z,18.00
2022-11-14T01:14:43.279Z,16.05
2022-11-14T01:17:10.496Z,17.35
2022-11-14T01:19:37.703Z,17.58
2022-11-14T01:22:06.598Z,16.23
2022-11-14T01:24:34.579Z,18.00
2022-11-14T01:27:02.075Z,16.77
2022-11-14T01:29:29.472Z,17.98
2022-11-14T01:31:56.979Z,16.65
2022-11-14T01:34:24.233Z,16.65
2022-11-14T01:36:51.401Z,16.02
2022-11-14T01:39:18.652Z,17.58
2022-11-14T01:41:45.836Z,17.65
2022-11-14T01:44:17.405Z,16.70
2022-11-14T01:46:47.573Z,16.65
2022-11-14T01:49:26.640Z,15.77
2022-11-14T01:52:01.677Z,16.95
2022-11-14T01:54:31.113Z,16.42
2022-11-14T01:57:00.044Z,16.23
2022-11-14T01:59:33.131Z,15.85
2022-11-14T02:02:02.810Z,17.27
2022-11-14T02:04:32.458Z,16.38
2022-11-14T02:07:01.832Z,16.65
2022-11-14T02:09:30.264Z,17.27
2022-11-14T02:11:58.685Z,16.00
2022-11-14T02:14:26.903Z,16.30
2022-11-14T02:17:22.328Z,15.85
2022-11-14T02:19:52.258Z,15.63
2022-11-14T02:22:19.583Z,15.77
2022-11-14T02:24:46.772Z,15.50
2022-11-14T02:27:15.292Z,16.00
2022-11-14T02:29:42.589Z,14.43
2022-11-14T02:32:11.081Z,16.02
2022-11-14T02:34:38.881Z,15.63
2022-11-14T02:37:06.266Z,16.52
2022-11-14T02:39:33.401Z,15.23
2022-11-14T02:42:00.579Z,14.98
2022-11-14T02:44:27.889Z,16.40
2022-11-14T02:46:55.065Z,15.52
2022-11-14T02:49:22.162Z,15.95
2022-11-14T02:51:49.429Z,15.90
2022-11-14T02:54:16.532Z,15.07
2022-11-14T02:56:43.682Z,15.43
2022-11-14T02:59:11.123Z,15.27
2022-11-14T03:01:38.351Z,14.35
2022-11-14T03:04:05.710Z,16.00
2022-11-14T03:06:32.968Z,14.38
2022-11-14T03:09:00.157Z,13.90
2022-11-14T03:11:27.267Z,14.85
2022-11-14T03:13:54.429Z,14.60
2022-11-14T03:16:21.609Z,16.10
2022-11-14T03:18:48.740Z,14.77
2022-11-14T03:21:17.717Z,15.32
2022-11-14T03:23:44.929Z,14.98
2022-11-14T03:26:13.117Z,14.32
2022-11-14T03:28:40.592Z,13.88
2022-11-14T03:31:08.430Z,14.10
2022-11-14T03:33:35.862Z,14.38
2022-11-14T03:36:03.567Z,14.77
2022-11-14T03:38:30.973Z,15.40
2022-11-14T03:41:01.760Z,15.25
2022-11-14T03:43:32.250Z,14.77
2022-11-14T03:46:00.614Z,13.73
2022-11-14T03:48:28.463Z,14.90
2022-11-14T03:50:56.104Z,14.63
2022-11-14T03:53:23.602Z,15.23
2022-11-14T03:55:50.916Z,14.43
2022-11-14T03:58:19.330Z,14.73
2022-11-14T04:00:46.923Z,13.85
2022-11-14T04:03:14.136Z,14.73
2022-11-14T04:05:45.345Z,15.18
2022-11-14T04:08:12.514Z,13.70
2022-11-14T04:10:41.298Z,14.48
2022-11-14T04:13:08.726Z,13.95
2022-11-14T04:15:35.855Z,13.63
2022-11-14T04:18:02.974Z,14.93
2022-11-14T04:20:30.103Z,14.30
2022-11-14T04:22:57.254Z,13.55
2022-11-14T04:25:24.364Z,13.77
2022-11-14T04:27:51.595Z,14.05
2022-11-14T04:30:18.924Z,14.95
2022-11-14T04:32:48.405Z,13.43
2022-11-14T04:35:15.836Z,14.95
2022-11-14T04:37:42.965Z,13.82
2022-11-14T04:40:10.369Z,13.88
2022-11-14T04:42:37.540Z,13.80
2022-11-14T04:45:04.972Z,13.68
2022-11-14T04:47:32.168Z,13.75
2022-11-14T04:49:59.312Z,14.00
2022-11-14T04:52:26.546Z,13.25
2022-11-14T04:54:53.657Z,14.38
2022-11-14T04:57:20.815Z,13.48
2022-11-14T04:59:47.955Z,13.75
2022-11-14T05:02:15.110Z,13.52
2022-11-14T05:04:44.362Z,14.25
2022-11-14T05:07:11.598Z,13.43
2022-11-14T05:09:38.832Z,13.27
2022-11-14T05:12:06.408Z,14.23
2022-11-14T05:14:33.732Z,12.27
2022-11-14T05:17:00.844Z,14.10
2022-11-14T05:19:28.029Z,14.15
2022-11-14T05:21:55.161Z,13.52
2022-11-14T05:24:22.298Z,15.15
2022-11-14T05:26:49.465Z,14.57
2022-11-14T05:29:16.665Z,13.75
2022-11-14T05:31:44.125Z,14.50
2022-11-14T05:34:11.268Z,13.73
2022-11-14T05:36:38.404Z,13.88
2022-11-14T05:39:05.579Z,13.25
2022-11-14T05:41:32.694Z,14.10
2022-11-14T05:43:59.839Z,14.15
2022-11-14T05:46:26.975Z,14.20
2022-11-14T05:48:54.156Z,14.02
2022-11-14T05:51:21.552Z,14.68
2022-11-14T05:53:48.758Z,14.23
2022-11-14T05:56:16.221Z,14.48
2022-11-14T05:58:43.417Z,14.13
2022-11-14T06:01:15.349Z,13.85
2022-11-14T06:03:44.005Z,14.23
2022-11-14T06:06:12.280Z,13.75
2022-11-14T06:08:39.885Z,15.73
2022-11-14T06:11:08.352Z,14.23
2022-11-14T06:13:35.945Z,14.43
2022-11-14T06:16:06.916Z,13.98
2022-11-14T06:18:34.310Z,15.23
2022-11-14T06:21:02.214Z,14.63
2022-11-14T06:23:29.788Z,14.68
2022-11-14T06:26:01.143Z,15.43
2022-11-14T06:28:29.370Z,14.77
2022-11-14T06:31:00.304Z,15.55
2022-11-14T06:33:31.427Z,14.77
2022-11-14T06:36:02.046Z,16.42
2022-11-14T06:38:31.321Z,17.35
2022-11-14T06:41:18.601Z,17.95
2022-11-14T06:43:46.740Z,18.00
2022-11-14T06:46:14.977Z,18.85
2022-11-14T06:48:43.632Z,18.73
2022-11-14T06:51:12.237Z,18.23
2022-11-14T06:53:40.007Z,20.08
2022-11-14T06:56:08.506Z,18.05
2022-11-14T06:58:37.216Z,19.77
2022-11-14T07:03:42.653Z,19.08
2022-11-14T07:06:11.446Z,19.95
2022-11-14T07:08:38.714Z,18.83
2022-11-14T07:11:10.284Z,18.92
2022-11-14T07:13:38.468Z,19.55
2022-11-14T07:16:05.810Z,20.40
2022-11-14T07:18:34.086Z,18.65
2022-11-14T07:21:02.859Z,18.90
2022-11-14T07:23:30.273Z,20.45
2022-11-14T07:26:00.838Z,18.83
2022-11-14T07:28:28.327Z,17.77
2022-11-14T07:30:55.805Z,19.42
2022-11-14T07:33:22.934Z,19.80
2022-11-14T07:35:51.106Z,19.05
2022-11-14T07:38:18.261Z,19.05
2022-11-14T07:40:58.149Z,18.67
2022-11-14T07:43:26.875Z,19.02
2022-11-14T07:45:54.006Z,18.98
2022-11-14T07:48:22.433Z,18.20
2022-11-14T07:50:49.572Z,18.67
2022-11-14T07:53:17.847Z,20.15
2022-11-14T07:55:45.003Z,18.08
2022-11-14T07:58:12.318Z,19.13
2022-11-14T08:00:39.497Z,18.75
2022-11-14T08:03:08.075Z,19.30
2022-11-14T08:05:36.002Z,19.92
2022-11-14T08:08:03.157Z,20.30
2022-11-14T08:10:33.549Z,19.20
2022-11-14T08:13:25.185Z,19.08
2022-11-14T08:15:49.155Z,19.23
2022-11-14T08:18:16.317Z,19.35
2022-11-14T08:20:44.066Z,18.55
2022-11-14T08:23:11.526Z,19.13
2022-11-14T08:25:38.670Z,19.35
2022-11-14T08:28:05.962Z,19.30
2022-11-14T08:30:33.172Z,19.70
2022-11-14T08:33:04.012Z,19.75
2022-11-14T08:35:31.149Z,23.17
2022-11-14T08:37:58.253Z,28.95
2022-11-14T08:40:25.491Z,32.05
2022-11-14T08:42:52.772Z,32.78
2022-11-14T08:45:20.018Z,37.05
2022-11-14T08:47:53.675Z,34.85
2022-11-14T08:50:20.830Z,35.58
2022-11-14T08:52:52.089Z,37.38
2022-11-14T08:55:20.072Z,102.90
2022-11-14T08:57:49.756Z,92.47
2022-11-14T09:00:17.854Z,99.63
2022-11-14T09:02:45.122Z,101.30
2022-11-14T09:05:12.320Z,104.63
2022-11-14T09:07:39.750Z,105.55
2022-11-14T09:10:07.224Z,104.30
2022-11-14T09:12:34.584Z,106.75
2022-11-14T09:15:01.815Z,107.32
2022-11-14T09:17:29.006Z,103.47
2022-11-14T09:19:56.118Z,104.63
2022-11-14T09:22:23.328Z,102.82
2022-11-14T09:24:52.022Z,105.75
2022-11-14T09:27:19.311Z,104.47
2022-11-14T09:29:46.460Z,103.80
2022-11-14T09:32:13.614Z,104.00
2022-11-14T09:34:43.548Z,100.78
2022-11-14T09:37:10.726Z,97.57
2022-11-14T09:39:40.548Z,101.55
2022-11-14T09:42:17.203Z,100.88
2022-11-14T09:45:04.311Z,98.32
2022-11-14T09:47:34.207Z,102.15
2022-11-14T09:50:11.946Z,114.15
2022-11-14T09:52:46.180Z,108.47
2022-11-14T09:55:15.270Z,109.53
2022-11-14T09:57:44.120Z,108.15
2022-11-14T10:00:14.985Z,105.88
2022-11-14T10:02:48.363Z,103.78
2022-11-14T10:05:21.619Z,106.05
2022-11-14T10:07:48.728Z,106.95
2022-11-14T10:10:18.603Z,104.90
2022-11-14T10:12:51.638Z,105.45
2022-11-14T10:15:18.813Z,102.72
2022-11-14T10:17:48.727Z,102.07
2022-11-14T10:20:24.723Z,109.25
2022-11-14T10:23:01.355Z,110.40
2022-11-14T10:25:44.202Z,105.90
2022-11-14T10:28:21.151Z,105.03
2022-11-14T10:30:48.285Z,103.53
2022-11-14T10:33:28.267Z,105.13
2022-11-14T10:35:59.662Z,104.28
2022-11-14T10:38:33.321Z,103.97
2022-11-14T10:41:05.568Z,100.85
2022-11-14T10:43:38.439Z,104.07
2022-11-14T10:46:12.620Z,105.60
2022-11-14T10:48:41.478Z,106.28
2022-11-14T10:51:15.955Z,103.43
2022-11-14T10:53:52.050Z,101.05
2022-11-14T10:56:19.239Z,101.85
2022-11-14T10:58:49.541Z,105.07
2022-11-14T11:01:35.688Z,106.35
2022-11-14T11:04:22.441Z,101.32
2022-11-14T11:06:57.447Z,104.35
2022-11-14T11:09:46.046Z,101.72
2022-11-14T11:12:18.040Z,58.03
2022-11-14T11:14:46.247Z,52.03
2022-11-14T11:17:14.860Z,52.10
2022-11-14T11:19:42.863Z,48.90
2022-11-14T11:22:29.526Z,53.00
2022-11-14T11:24:56.725Z,56.60
2022-11-14T11:27:23.953Z,58.25
2022-11-14T11:30:11.386Z,49.42
2022-11-14T11:32:40.290Z,50.17
2022-11-14T11:35:11.717Z,41.28
2022-11-14T11:37:55.924Z,53.72
2022-11-14T11:40:28.399Z,78.32
2022-11-14T11:45:47.983Z,72.57
2022-11-14T11:48:15.257Z,67.75
2022-11-14T11:50:43.281Z,65.00
2022-11-14T11:53:12.517Z,63.92
2022-11-14T11:55:44.934Z,64.20
2022-11-14T11:58:30.667Z,59.10
2022-11-14T12:00:58.106Z,57.47
2022-11-14T12:03:26.537Z,55.03
2022-11-14T12:06:03.421Z,54.72
2022-11-14T12:08:38.586Z,53.63
2022-11-14T12:11:09.833Z,52.47
2022-11-14T12:13:42.745Z,51.53
2022-11-14T12:16:22.471Z,50.28
2022-11-14T12:18:49.581Z,49.00
2022-11-14T12:21:28.866Z,49.60
2022-11-14T12:24:11.930Z,46.90
2022-11-14T12:26:42.073Z,45.90
2022-11-14T12:29:27.861Z,46.80
2022-11-14T12:31:57.953Z,43.13
2022-11-14T12:34:33.422Z,44.92
2022-11-14T12:37:00.877Z,44.05
2022-11-14T12:39:29.865Z,41.85
2022-11-14T12:42:07.236Z,43.65
2022-11-14T12:44:36.094Z,39.85
2022-11-14T12:47:06.469Z,42.00
2022-11-14T12:49:57.208Z,42.55
2022-11-14T12:52:43.687Z,39.72
2022-11-14T12:55:26.137Z,40.45
2022-11-14T12:58:16.619Z,42.03
2022-11-14T13:00:46.650Z,38.35
2022-11-14T13:03:16.753Z,36.38
2022-11-14T13:05:54.974Z,37.92
2022-11-14T13:08:40.718Z,35.72
2022-11-14T13:11:46.693Z,35.40
2022-11-14T13:14:32.699Z,38.25
2022-11-14T13:17:29.229Z,36.72
2022-11-14T13:20:15.332Z,38.42
2022-11-14T13:22:43.726Z,37.50
2022-11-14T13:25:18.833Z,37.28
2022-11-14T13:28:21.834Z,38.03
2022-11-14T13:30:52.721Z,33.58
2022-11-14T13:33:40.093Z,34.22
2022-11-14T13:36:07.890Z,35.30
2022-11-14T13:38:54.260Z,35.25
2022-11-14T13:41:47.579Z,34.67
2022-11-14T13:44:24.655Z,32.10
2022-11-14T13:47:10.576Z,33.45
2022-11-14T13:49:48.535Z,32.78
2022-11-14T13:52:16.756Z,34.65
2022-11-14T13:54:50.552Z,30.83
2022-11-14T13:57:29.505Z,36.60
2022-11-14T14:00:02.743Z,38.03
2022-11-14T14:02:45.527Z,37.28
2022-11-14T14:05:21.703Z,37.05
2022-11-14T14:08:01.275Z,36.38
2022-11-14T14:10:34.294Z,38.00
2022-11-14T14:13:16.644Z,38.00
2022-11-14T14:15:59.786Z,37.50
2022-11-14T14:18:37.426Z,36.17
2022-11-14T14:21:33.908Z,39.08
2022-11-14T14:24:29.652Z,36.55
2022-11-14T14:27:08.884Z,36.22
2022-11-14T14:29:46.847Z,36.60
2022-11-14T14:32:15.165Z,34.88
2022-11-14T14:34:42.492Z,34.83
2022-11-14T14:37:16.992Z,33.67
2022-11-14T14:39:56.078Z,33.85
2022-11-14T14:42:23.596Z,33.33
2022-11-14T14:44:50.818Z,31.25
2022-11-14T14:47:17.909Z,28.48
2022-11-14T14:49:45.244Z,26.42
2022-11-14T14:52:32.091Z,31.23
2022-11-14T14:55:02.314Z,32.20
2022-11-14T14:57:30.507Z,43.78
2022-11-14T15:00:08.699Z,42.85
2022-11-14T15:02:36.016Z,40.13
2022-11-14T15:05:03.710Z,42.78
2022-11-14T15:07:31.347Z,44.67
2022-11-14T15:10:02.405Z,44.88
2022-11-14T15:12:30.622Z,40.53
2022-11-14T15:14:58.911Z,42.15
2022-11-14T15:17:26.189Z,40.33
2022-11-14T15:19:54.663Z,39.53
2022-11-14T15:22:26.182Z,38.22
2022-11-14T15:25:05.447Z,37.13
2022-11-14T15:27:33.284Z,38.85
2022-11-14T15:30:04.994Z,37.15
2022-11-14T15:32:33.677Z,37.65
2022-11-14T15:35:24.912Z,38.15
2022-11-14T15:38:21.788Z,35.03
2022-11-14T15:41:07.554Z,36.67
2022-11-14T15:43:40.583Z,35.58
2022-11-14T15:46:26.414Z,33.58
2022-11-14T15:48:53.771Z,33.80
2022-11-14T15:51:38.512Z,35.80
2022-11-14T15:54:06.802Z,33.53
2022-11-14T15:56:33.999Z,33.45
2022-11-14T15:59:01.196Z,35.15
2022-11-14T16:01:28.367Z,34.85
2022-11-14T16:03:55.839Z,34.78
2022-11-14T16:06:23.033Z,32.78
2022-11-14T16:08:50.199Z,32.85
2022-11-14T16:11:17.390Z,33.35
2022-11-14T16:13:44.525Z,33.00
2022-11-14T16:16:11.629Z,62.17
2022-11-14T16:18:38.817Z,62.15
2022-11-14T16:21:06.033Z,58.47
2022-11-14T16:23:33.591Z,48.03
2022-11-14T16:26:00.866Z,52.38
2022-11-14T16:28:28.959Z,49.65
2022-11-14T16:30:56.080Z,48.15
2022-11-14T16:33:23.266Z,45.83
2022-11-14T16:35:50.397Z,49.80
2022-11-14T16:38:17.565Z,54.30
2022-11-14T16:40:44.952Z,51.90
2022-11-14T16:43:15.583Z,49.75
2022-11-14T16:45:42.771Z,58.72
2022-11-14T16:48:09.927Z,46.58
2022-11-14T16:50:38.396Z,46.53
2022-11-14T16:53:05.702Z,48.05
2022-11-14T16:55:32.797Z,50.58
2022-11-14T16:57:59.896Z,50.33
2022-11-14T17:00:27.673Z,47.35
2022-11-14T17:02:54.950Z,45.80
2022-11-14T17:05:22.085Z,45.42
2022-11-14T17:07:49.265Z,46.05
2022-11-14T17:10:16.392Z,47.78
2022-11-14T17:12:43.563Z,45.33
2022-11-14T17:15:10.777Z,43.30
2022-11-14T17:17:37.889Z,43.83
2022-11-14T17:20:05.309Z,46.80
2022-11-14T17:22:32.418Z,47.22
2022-11-14T17:24:59.528Z,45.03
2022-11-14T17:27:26.645Z,43.90
2022-11-14T17:29:54.141Z,42.63
2022-11-14T17:32:21.266Z,42.72
2022-11-14T17:34:48.449Z,43.45
2022-11-14T17:37:16.374Z,41.45
2022-11-14T17:39:43.546Z,38.33
2022-11-14T17:42:10.717Z,41.45
2022-11-14T17:44:37.835Z,38.78
2022-11-14T17:47:05.044Z,37.15
2022-11-14T17:49:32.210Z,36.58
2022-11-14T17:51:59.358Z,39.58
2022-11-14T17:54:26.478Z,37.50
2022-11-14T17:56:55.081Z,36.42
2022-11-14T17:59:22.451Z,36.35
2022-11-14T18:01:49.870Z,35.75
2022-11-14T18:04:17.119Z,35.67
2022-11-14T18:06:44.255Z,39.35
2022-11-14T18:09:14.452Z,37.92
2022-11-14T18:11:41.821Z,37.20
2022-11-14T18:14:08.928Z,36.10
2022-11-14T18:17:05.412Z,34.67
2022-11-14T18:19:23.258Z,33.80
2022-11-14T18:21:53.735Z,34.17
2022-11-14T18:24:21.750Z,33.92
2022-11-14T18:26:48.899Z,33.53
2022-11-14T18:29:18.091Z,35.38
2022-11-14T18:31:45.323Z,32.75
2022-11-14T18:34:12.508Z,35.35
2022-11-14T18:36:39.630Z,30.25
2022-11-14T18:39:06.910Z,32.05
2022-11-14T18:41:34.096Z,32.45
2022-11-14T18:44:03.687Z,34.28
2022-11-14T18:46:36.043Z,34.28
2022-11-14T18:49:04.598Z,33.55
2022-11-14T18:51:31.938Z,31.88
2022-11-14T18:53:59.385Z,33.45
2022-11-14T18:56:26.951Z,32.45
2022-11-14T18:58:57.788Z,32.00
2022-11-14T19:01:26.555Z,32.30
2022-11-14T19:03:56.781Z,31.35
2022-11-14T19:06:23.940Z,30.55
2022-11-14T19:08:51.062Z,31.77
2022-11-14T19:11:37.651Z,30.75
2022-11-14T19:14:06.005Z,29.25
2022-11-14T19:16:36.441Z,29.75
2022-11-14T19:19:04.268Z,30.45
2022-11-14T19:21:31.580Z,30.05
2022-11-14T19:24:01.884Z,29.35
2022-11-14T19:26:29.432Z,28.05
2022-11-14T19:28:56.882Z,30.38
2022-11-14T19:31:24.285Z,29.85
2022-11-14T19:33:51.491Z,28.73
2022-11-14T19:36:52.782Z,28.48
2022-11-14T19:39:10.513Z,29.88
2022-11-14T19:41:37.924Z,27.90
2022-11-14T19:44:05.223Z,28.70
2022-11-14T19:46:32.467Z,29.52
2022-11-14T19:49:00.537Z,28.38
2022-11-14T19:51:28.596Z,27.67
2022-11-14T19:53:56.615Z,28.85
2022-11-14T19:56:24.073Z,28.30
2022-11-14T19:58:52.000Z,26.02
2022-11-14T20:01:20.647Z,26.58
2022-11-14T20:03:55.573Z,25.20
2022-11-14T20:06:24.926Z,27.73
2022-11-14T20:08:52.087Z,27.98
2022-11-14T20:11:19.774Z,26.92
2022-11-14T20:13:47.291Z,25.83
2022-11-14T20:16:18.840Z,26.52
2022-11-14T20:18:47.557Z,25.27
2022-11-14T20:21:15.396Z,25.55
2022-11-14T20:23:42.561Z,25.75
2022-11-14T20:26:11.463Z,23.30
2022-11-14T20:28:39.590Z,23.88
2022-11-14T20:31:08.308Z,23.17
2022-11-14T20:33:39.228Z,23.52
2022-11-14T20:36:09.612Z,24.02
2022-11-14T20:38:36.791Z,24.27
2022-11-14T20:41:03.946Z,23.55
2022-11-14T20:43:31.670Z,24.10
2022-11-14T20:46:00.199Z,23.83
2022-11-14T20:48:27.966Z,23.10
2022-11-14T20:51:02.019Z,22.92
2022-11-14T20:53:29.550Z,23.08
2022-11-14T20:55:56.967Z,23.95
2022-11-14T20:58:24.186Z,23.23
2022-11-14T21:00:51.994Z,23.17
2022-11-14T21:03:19.924Z,25.02
2022-11-14T21:05:47.218Z,23.38
2022-11-14T21:08:14.519Z,23.02
2022-11-14T21:10:45.439Z,25.45
2022-11-14T21:13:35.352Z,23.38
2022-11-14T21:16:03.394Z,24.52
2022-11-14T21:18:30.901Z,25.25
2022-11-14T21:20:58.995Z,25.10
2022-11-14T21:23:26.607Z,23.48
2022-11-14T21:25:53.848Z,24.65
2022-11-14T21:28:20.975Z,24.25
2022-11-14T21:30:48.116Z,28.08
2022-11-14T21:33:15.255Z,28.20
2022-11-14T21:35:42.481Z,26.40
2022-11-14T21:38:09.630Z,25.88
2022-11-14T21:40:36.754Z,27.08
2022-11-14T21:43:03.941Z,25.58
2022-11-14T21:45:31.110Z,26.40
2022-11-14T21:47:58.244Z,25.70
2022-11-14T21:50:25.337Z,25.15
2022-11-14T21:52:52.526Z,25.88
2022-11-14T21:55:19.645Z,24.52
2022-11-14T21:57:46.866Z,21.88
2022-11-14T22:00:14.246Z,23.67
2022-11-14T22:03:00.415Z,24.08
2022-11-14T22:05:27.583Z,25.73
2022-11-14T22:07:54.740Z,24.70
2022-11-14T22:10:21.868Z,24.38
2022-11-14T22:12:48.994Z,25.20
2022-11-14T22:15:16.171Z,24.15
2022-11-14T22:17:43.380Z,24.17
2022-11-14T22:20:10.789Z,24.65
2022-11-14T22:22:37.929Z,26.98
2022-11-14T22:25:05.209Z,27.90
2022-11-14T22:27:32.396Z,27.55
2022-11-14T22:29:59.522Z,26.83
2022-11-14T22:32:26.821Z,25.38
2022-11-14T22:34:54.130Z,26.65
2022-11-14T22:37:21.265Z,26.20
2022-11-14T22:39:48.435Z,24.88
2022-11-14T22:42:15.601Z,26.52
2022-11-14T22:44:42.745Z,26.23
2022-11-14T22:47:09.903Z,25.38
2022-11-14T22:49:37.068Z,25.98
2022-11-14T22:52:04.246Z,26.55
2022-11-14T22:54:31.376Z,26.20
2022-11-14T22:56:58.497Z,25.50
2022-11-14T22:59:25.685Z,24.02
2022-11-14T23:01:52.919Z,25.70
2022-11-14T23:04:20.325Z,25.90
2022-11-14T23:06:47.591Z,24.48
2022-11-14T23:09:14.774Z,24.92
2022-11-14T23:11:41.927Z,25.27
2022-11-14T23:14:10.203Z,25.38
2022-11-14T23:16:37.336Z,22.92
2022-11-14T23:19:04.836Z,24.60
2022-11-14T23:21:37.368Z,25.70
2022-11-14T23:24:06.320Z,23.67
2022-11-14T23:26:33.791Z,23.40
2022-11-14T23:29:01.200Z,23.92
2022-11-14T23:31:28.727Z,23.88
2022-11-14T23:33:57.807Z,23.80
2022-11-14T23:36:25.388Z,23.55
2022-11-14T23:38:53.414Z,23.73
2022-11-14T23:41:25.768Z,23.17
2022-11-14T23:43:52.955Z,22.83
2022-11-14T23:46:20.138Z,22.60
2022-11-14T23:48:47.303Z,22.77
2022-11-14T23:51:14.524Z,24.13
2022-11-14T23:53:42.193Z,20.85
2022-11-14T23:56:13.062Z,22.23
2022-11-14T23:58:40.307Z,21.08
